createdAt,value
2023-03-29T00:02:19.644Z,2.41
2023-03-29T00:04:46.988Z,2.54
2023-03-29T00:07:14.107Z,2.55
2023-03-29T00:09:40.570Z,2.62
2023-03-29T00:12:07.186Z,2.57
2023-03-29T00:14:33.697Z,2.56
2023-03-29T00:17:00.632Z,2.35
2023-03-29T00:19:27.166Z,2.28
2023-03-29T00:21:53.715Z,2.48
2023-03-29T00:24:21.343Z,2.52
2023-03-29T00:26:48.326Z,2.70
2023-03-29T00:29:14.827Z,2.67
2023-03-29T00:31:41.399Z,2.60
2023-03-29T00:34:07.920Z,2.53
2023-03-29T00:36:34.403Z,2.32
2023-03-29T00:39:01.061Z,2.54
2023-03-29T00:41:27.684Z,2.39
2023-03-29T00:43:54.091Z,2.24
2023-03-29T00:46:21.235Z,2.44
2023-03-29T00:48:47.835Z,2.22
2023-03-29T00:51:16.517Z,2.10
2023-03-29T00:53:48.305Z,2.23
2023-03-29T00:56:20.272Z,2.06
2023-03-29T00:58:46.705Z,2.09
2023-03-29T01:01:19.491Z,1.91
2023-03-29T01:03:54.390Z,1.92
2023-03-29T01:06:24.719Z,2.03
2023-03-29T01:08:54.497Z,1.70
2023-03-29T01:11:24.674Z,2.03
2023-03-29T01:13:54.940Z,2.04
2023-03-29T01:16:23.313Z,1.95
2023-03-29T01:18:50.492Z,1.76
2023-03-29T01:21:21.541Z,1.97
2023-03-29T01:23:51.023Z,1.94
2023-03-29T01:26:20.651Z,1.61
2023-03-29T01:28:51.405Z,1.80
2023-03-29T01:31:28.704Z,1.93
2023-03-29T01:34:05.837Z,1.68
2023-03-29T01:36:44.798Z,1.35
2023-03-29T01:39:11.293Z,1.73
2023-03-29T01:41:41.050Z,1.63
2023-03-29T01:44:13.779Z,1.71
2023-03-29T01:46:45.561Z,2.01
2023-03-29T01:49:32.432Z,1.96
2023-03-29T01:52:01.190Z,2.05
2023-03-29T01:54:27.607Z,2.07
2023-03-29T01:56:57.584Z,2.17
2023-03-29T01:59:26.398Z,2.16
2023-03-29T02:01:55.221Z,2.17
2023-03-29T02:04:25.548Z,2.16
2023-03-29T02:06:54.518Z,2.17
2023-03-29T02:09:21.243Z,2.18
2023-03-29T02:11:48.514Z,1.99
2023-03-29T02:14:15.478Z,1.81
2023-03-29T02:16:41.953Z,2.01
2023-03-29T02:19:09.404Z,2.00
2023-03-29T02:21:35.819Z,2.12
2023-03-29T02:24:06.513Z,2.14
2023-03-29T02:26:33.373Z,2.59
2023-03-29T02:29:00.075Z,2.44
2023-03-29T02:31:56.256Z,2.30
2023-03-29T02:34:22.947Z,2.15
2023-03-29T02:36:58.860Z,2.00
2023-03-29T02:39:27.252Z,1.99
2023-03-29T02:41:54.561Z,1.83
2023-03-29T02:44:27.422Z,1.89
2023-03-29T02:46:56.776Z,1.89
2023-03-29T02:49:23.783Z,1.88
2023-03-29T02:51:53.578Z,2.07
2023-03-29T02:54:23.119Z,2.25
2023-03-29T02:56:54.817Z,2.21
2023-03-29T02:59:24.723Z,2.26
2023-03-29T03:01:52.537Z,2.25
2023-03-29T03:04:20.692Z,2.00
2023-03-29T03:06:48.365Z,2.29
2023-03-29T03:09:15.542Z,2.39
2023-03-29T03:11:44.650Z,2.49
2023-03-29T03:14:11.257Z,2.85
2023-03-29T03:16:37.915Z,2.70
2023-03-29T03:19:05.024Z,2.51
2023-03-29T03:21:31.521Z,2.42
2023-03-29T03:23:59.775Z,2.34
2023-03-29T03:26:30.088Z,2.53
2023-03-29T03:28:57.455Z,2.50
2023-03-29T03:31:44.643Z,2.50
2023-03-29T03:34:34.764Z,2.66
2023-03-29T03:37:01.930Z,2.52
2023-03-29T03:39:31.516Z,2.47
2023-03-29T03:41:58.814Z,2.63
2023-03-29T03:44:26.046Z,2.68
2023-03-29T03:47:09.764Z,2.58
2023-03-29T03:49:37.510Z,2.48
2023-03-29T03:52:04.227Z,2.58
2023-03-29T03:54:32.005Z,2.68
2023-03-29T03:57:39.801Z,2.77
2023-03-29T04:00:19.657Z,2.79
2023-03-29T04:02:56.481Z,2.57
2023-03-29T04:05:23.435Z,2.73
2023-03-29T04:07:50.226Z,2.62
2023-03-29T04:10:39.716Z,2.58
2023-03-29T04:13:22.538Z,2.66
2023-03-29T04:16:18.176Z,2.43
2023-03-29T04:18:45.578Z,2.31
2023-03-29T04:21:12.651Z,2.35
2023-03-29T04:23:39.208Z,2.34
2023-03-29T04:26:06.625Z,2.64
2023-03-29T04:28:46.987Z,2.54
2023-03-29T04:31:18.716Z,2.52
2023-03-29T04:33:52.301Z,2.58
2023-03-29T04:36:19.478Z,2.45
2023-03-29T04:38:47.942Z,2.64
2023-03-29T04:41:16.122Z,2.49
2023-03-29T04:43:58.651Z,2.42
2023-03-29T04:46:26.918Z,2.61
2023-03-29T04:49:12.620Z,2.53
2023-03-29T04:51:42.319Z,2.75
2023-03-29T04:54:09.977Z,2.81
2023-03-29T04:56:59.642Z,2.64
2023-03-29T04:59:44.695Z,2.67
2023-03-29T05:02:32.423Z,2.72
2023-03-29T05:04:59.399Z,2.89
2023-03-29T05:07:26.507Z,2.91
2023-03-29T05:09:53.336Z,3.12
2023-03-29T05:12:20.875Z,2.95
2023-03-29T05:14:52.900Z,2.96
2023-03-29T05:17:22.056Z,3.08
2023-03-29T05:19:49.680Z,3.11
2023-03-29T05:22:16.687Z,2.96
2023-03-29T05:24:43.630Z,3.09
2023-03-29T05:27:17.204Z,3.38
2023-03-29T05:29:51.061Z,3.33
2023-03-29T05:32:46.955Z,3.27
2023-03-29T05:35:16.935Z,3.20
2023-03-29T05:37:44.295Z,3.38
2023-03-29T05:40:13.265Z,3.35
2023-03-29T05:43:02.838Z,3.19
2023-03-29T05:45:30.007Z,3.36
2023-03-29T05:47:57.712Z,3.43
2023-03-29T05:50:24.771Z,3.46
2023-03-29T05:52:51.618Z,3.33
2023-03-29T05:55:18.530Z,3.23
2023-03-29T05:57:45.925Z,3.43
2023-03-29T06:00:31.910Z,3.62
2023-03-29T06:05:48.433Z,3.85
2023-03-29T06:08:16.608Z,3.66
2023-03-29T06:11:04.559Z,3.74
2023-03-29T06:13:50.250Z,3.95
2023-03-29T06:16:16.810Z,4.11
2023-03-29T06:18:43.552Z,4.06
2023-03-29T06:21:10.660Z,4.16
2023-03-29T06:23:37.894Z,4.31
2023-03-29T06:26:05.805Z,4.38
2023-03-29T06:28:33.171Z,4.17
2023-03-29T06:31:04.092Z,4.33
2023-03-29T06:33:37.237Z,4.53
2023-03-29T06:36:28.002Z,4.39
2023-03-29T06:38:55.348Z,4.31
2023-03-29T06:41:45.028Z,4.41
2023-03-29T06:44:45.369Z,4.54
2023-03-29T06:47:18.988Z,4.13
2023-03-29T06:49:45.549Z,4.57
2023-03-29T06:52:27.275Z,4.86
2023-03-29T06:54:53.960Z,4.89
2023-03-29T06:57:23.715Z,5.60
2023-03-29T06:59:50.212Z,5.38
2023-03-29T07:02:21.912Z,5.06
2023-03-29T07:04:54.464Z,4.99
2023-03-29T07:07:56.592Z,5.00
2023-03-29T07:10:39.562Z,5.11
2023-03-29T07:13:26.205Z,4.98
2023-03-29T07:15:55.846Z,5.30
2023-03-29T07:18:41.928Z,5.60
2023-03-29T07:21:11.473Z,5.63
2023-03-29T07:23:38.448Z,5.80
2023-03-29T07:26:07.925Z,5.74
2023-03-29T07:28:34.701Z,5.75
2023-03-29T07:31:02.276Z,5.73
2023-03-29T07:33:30.463Z,5.43
2023-03-29T07:36:02.014Z,5.38
2023-03-29T07:38:28.840Z,5.40
2023-03-29T07:41:03.284Z,5.42
2023-03-29T07:43:55.893Z,5.10
2023-03-29T07:46:25.057Z,5.38
2023-03-29T07:48:52.151Z,5.06
2023-03-29T07:51:19.664Z,5.03
2023-03-29T07:53:52.720Z,5.16
2023-03-29T07:56:37.892Z,5.25
2023-03-29T07:59:16.923Z,5.12
2023-03-29T08:01:47.459Z,5.02
2023-03-29T08:04:31.026Z,5.23
2023-03-29T08:07:18.834Z,5.30
2023-03-29T08:10:06.785Z,5.10
2023-03-29T08:12:56.638Z,5.16
2023-03-29T08:15:30.599Z,5.16
2023-03-29T08:17:57.148Z,5.28
2023-03-29T08:20:25.163Z,5.42
2023-03-29T08:22:55.404Z,5.44
2023-03-29T08:25:35.167Z,5.67
2023-03-29T08:28:02.804Z,5.63
2023-03-29T08:30:40.342Z,5.52
2023-03-29T08:33:07.648Z,5.88
2023-03-29T08:35:34.675Z,5.74
2023-03-29T08:38:21.764Z,5.72
2023-03-29T08:40:49.527Z,6.51
2023-03-29T08:43:17.703Z,6.32
2023-03-29T08:46:36.021Z,6.40
2023-03-29T08:49:39.778Z,6.55
2023-03-29T08:52:16.896Z,6.32
2023-03-29T08:54:46.737Z,6.48
2023-03-29T08:57:25.581Z,6.91
2023-03-29T08:59:58.632Z,6.74
2023-03-29T09:02:30.655Z,6.89
2023-03-29T09:05:05.944Z,6.90
2023-03-29T09:07:53.274Z,7.05
2023-03-29T09:10:23.103Z,7.18
2023-03-29T09:12:59.440Z,7.29
2023-03-29T09:15:33.770Z,7.27
2023-03-29T09:18:32.334Z,7.67
2023-03-29T09:21:02.147Z,7.41
2023-03-29T09:23:40.572Z,7.46
2023-03-29T09:26:18.207Z,7.10
2023-03-29T09:29:04.493Z,7.08
2023-03-29T09:31:43.353Z,7.33
2023-03-29T09:34:15.668Z,6.85
2023-03-29T09:37:25.069Z,6.70
2023-03-29T09:39:53.143Z,7.00
2023-03-29T09:42:24.127Z,7.12
2023-03-29T09:44:52.663Z,6.90
2023-03-29T09:47:28.075Z,7.20
2023-03-29T09:50:01.960Z,7.17
2023-03-29T09:52:28.885Z,7.88
2023-03-29T09:55:13.649Z,7.94
2023-03-29T09:58:01.689Z,7.40
2023-03-29T10:00:32.784Z,7.09
2023-03-29T10:03:00.146Z,7.51
2023-03-29T10:05:37.203Z,8.42
2023-03-29T10:08:15.023Z,7.76
2023-03-29T10:10:42.715Z,7.62
2023-03-29T10:13:16.611Z,7.84
2023-03-29T10:15:43.360Z,8.04
2023-03-29T10:18:13.368Z,7.52
2023-03-29T10:20:40.583Z,7.52
2023-03-29T10:23:08.361Z,7.57
2023-03-29T10:25:38.385Z,7.90
2023-03-29T10:28:07.750Z,7.79
2023-03-29T10:30:36.049Z,8.02
2023-03-29T10:33:03.294Z,8.18
2023-03-29T10:35:29.794Z,7.93
2023-03-29T10:37:58.455Z,7.99
2023-03-29T10:40:32.696Z,8.13
2023-03-29T10:43:00.612Z,8.81
2023-03-29T10:45:28.344Z,8.99
2023-03-29T10:47:56.049Z,9.26
2023-03-29T10:50:22.940Z,9.12
2023-03-29T10:52:50.432Z,9.47
2023-03-29T10:55:17.122Z,9.82
2023-03-29T10:57:48.388Z,10.04
2023-03-29T11:00:15.044Z,9.72
2023-03-29T11:02:53.880Z,9.62
2023-03-29T11:05:52.969Z,9.50
2023-03-29T11:08:36.575Z,9.35
2023-03-29T11:11:05.891Z,10.06
2023-03-29T11:14:04.789Z,9.92
2023-03-29T11:16:31.240Z,10.00
2023-03-29T11:19:06.910Z,10.61
2023-03-29T11:21:39.788Z,10.19
2023-03-29T11:24:12.832Z,9.17
2023-03-29T11:26:53.479Z,10.28
2023-03-29T11:29:27.115Z,10.05
2023-03-29T11:31:56.791Z,9.90
2023-03-29T11:34:42.214Z,9.75
2023-03-29T11:37:11.686Z,9.91
2023-03-29T11:39:43.971Z,9.85
2023-03-29T11:42:18.254Z,10.05
2023-03-29T11:44:47.216Z,10.57
2023-03-29T11:47:26.741Z,9.66
2023-03-29T11:49:57.391Z,9.61
2023-03-29T11:52:37.893Z,9.84
2023-03-29T11:55:08.288Z,10.37
2023-03-29T11:57:37.558Z,9.77
2023-03-29T12:00:14.787Z,9.89
2023-03-29T12:02:59.519Z,10.15
2023-03-29T12:05:47.484Z,10.22
2023-03-29T12:08:29.499Z,9.83
2023-03-29T12:11:07.247Z,10.30
2023-03-29T12:13:37.873Z,10.89
2023-03-29T12:16:16.564Z,10.54
2023-03-29T12:18:45.808Z,11.24
2023-03-29T12:21:14.367Z,10.83
2023-03-29T12:23:41.857Z,11.53
2023-03-29T12:26:20.619Z,11.32
2023-03-29T12:29:07.133Z,10.69
2023-03-29T12:31:42.840Z,10.81
2023-03-29T12:34:18.083Z,10.85
2023-03-29T12:37:00.459Z,10.79
2023-03-29T12:39:46.954Z,10.87
2023-03-29T12:42:31.785Z,10.57
2023-03-29T12:45:33.356Z,10.78
2023-03-29T12:48:00.247Z,11.08
2023-03-29T12:50:37.965Z,10.61
2023-03-29T12:53:13.965Z,10.55
2023-03-29T12:55:48.331Z,10.06
2023-03-29T12:58:42.764Z,10.06
2023-03-29T13:01:27.632Z,10.48
2023-03-29T13:03:57.716Z,9.94
2023-03-29T13:06:30.139Z,10.05
2023-03-29T13:09:01.612Z,9.72
2023-03-29T13:11:37.432Z,10.54
2023-03-29T13:14:11.590Z,10.32
2023-03-29T13:16:40.435Z,10.48
2023-03-29T13:19:17.332Z,10.32
2023-03-29T13:21:46.559Z,10.80
2023-03-29T13:24:12.977Z,10.66
2023-03-29T13:27:05.754Z,10.59
2023-03-29T13:29:35.175Z,10.76
2023-03-29T13:32:06.443Z,11.14
2023-03-29T13:34:48.328Z,11.20
2023-03-29T13:37:29.856Z,11.28
2023-03-29T13:39:56.932Z,11.51
2023-03-29T13:42:24.972Z,11.34
2023-03-29T13:44:52.247Z,10.61
2023-03-29T13:47:18.814Z,11.54
2023-03-29T13:49:51.698Z,11.89
2023-03-29T13:52:32.517Z,12.45
2023-03-29T13:55:33.673Z,12.92
2023-03-29T13:58:10.053Z,13.71
2023-03-29T14:00:49.507Z,12.49
2023-03-29T14:03:17.530Z,11.79
2023-03-29T14:05:47.610Z,13.62
2023-03-29T14:08:23.206Z,14.34
2023-03-29T14:10:50.081Z,14.48
2023-03-29T14:13:18.130Z,14.32
2023-03-29T14:15:48.576Z,14.40
2023-03-29T14:18:16.875Z,14.70
2023-03-29T14:20:45.362Z,14.83
2023-03-29T14:23:15.681Z,14.98
2023-03-29T14:25:42.682Z,14.68
2023-03-29T14:28:18.964Z,14.23
2023-03-29T14:30:47.146Z,14.69
2023-03-29T14:33:29.972Z,15.59
2023-03-29T14:35:58.204Z,15.86
2023-03-29T14:38:26.177Z,14.99
2023-03-29T14:40:53.022Z,15.59
2023-03-29T14:43:22.473Z,15.05
2023-03-29T14:45:49.422Z,13.93
2023-03-29T14:48:16.403Z,12.81
2023-03-29T14:50:44.152Z,13.21
2023-03-29T14:53:17.145Z,13.73
2023-03-29T14:55:46.153Z,13.22
2023-03-29T14:58:19.893Z,12.59
2023-03-29T15:00:48.093Z,12.05
2023-03-29T15:03:15.254Z,11.30
2023-03-29T15:05:43.972Z,11.10
2023-03-29T15:08:14.896Z,10.49
2023-03-29T15:10:44.729Z,10.34
2023-03-29T15:13:16.364Z,10.48
2023-03-29T15:15:42.994Z,10.24
2023-03-29T15:18:13.101Z,9.85
2023-03-29T15:20:39.799Z,9.94
2023-03-29T15:23:15.494Z,9.78
2023-03-29T15:25:52.150Z,10.10
2023-03-29T15:28:32.623Z,9.74
2023-03-29T15:31:12.899Z,9.66
2023-03-29T15:33:41.057Z,9.75
2023-03-29T15:36:09.257Z,10.00
2023-03-29T15:38:43.957Z,9.90
2023-03-29T15:41:11.688Z,10.04
2023-03-29T15:43:38.233Z,9.70
2023-03-29T15:46:05.096Z,9.39
2023-03-29T15:48:33.528Z,9.54
2023-03-29T15:51:03.727Z,9.49
2023-03-29T15:53:32.112Z,9.31
2023-03-29T15:56:00.003Z,9.47
2023-03-29T15:58:27.805Z,9.24
2023-03-29T16:01:11.174Z,9.32
2023-03-29T16:03:38.321Z,9.43
2023-03-29T16:06:05.283Z,9.50
2023-03-29T16:08:32.105Z,9.43
2023-03-29T16:10:58.590Z,9.52
2023-03-29T16:13:25.126Z,9.38
2023-03-29T16:15:51.601Z,9.22
2023-03-29T16:18:18.045Z,9.19
2023-03-29T16:20:44.513Z,9.20
2023-03-29T16:23:11.919Z,9.16
2023-03-29T16:25:39.891Z,9.10
2023-03-29T16:28:07.829Z,8.99
2023-03-29T16:30:35.275Z,9.13
2023-03-29T16:33:06.132Z,9.16
2023-03-29T16:35:35.940Z,9.06
2023-03-29T16:38:02.531Z,8.93
2023-03-29T16:40:29.074Z,8.73
2023-03-29T16:42:55.767Z,8.68
2023-03-29T16:45:22.376Z,8.79
2023-03-29T16:47:48.988Z,8.89
2023-03-29T16:50:17.979Z,8.97
2023-03-29T16:52:45.176Z,9.19
2023-03-29T16:55:12.749Z,9.04
2023-03-29T16:57:40.080Z,8.93
2023-03-29T17:00:07.992Z,8.93
2023-03-29T17:02:34.524Z,8.80
2023-03-29T17:05:01.068Z,8.92
2023-03-29T17:07:27.614Z,9.05
2023-03-29T17:09:54.141Z,8.97
2023-03-29T17:12:21.205Z,8.99
2023-03-29T17:14:48.118Z,8.95
2023-03-29T17:17:15.183Z,8.85
2023-03-29T17:19:41.678Z,8.91
2023-03-29T17:22:08.327Z,9.06
2023-03-29T17:24:34.746Z,8.83
2023-03-29T17:27:01.353Z,9.21
2023-03-29T17:29:27.825Z,8.99
2023-03-29T17:31:54.833Z,8.95
2023-03-29T17:34:21.412Z,8.91
2023-03-29T17:36:48.782Z,8.90
2023-03-29T17:39:15.397Z,8.83
2023-03-29T17:41:42.132Z,8.65
2023-03-29T17:44:08.707Z,8.59
2023-03-29T17:46:35.279Z,8.51
2023-03-29T17:49:02.609Z,8.58
2023-03-29T17:51:29.305Z,8.34
2023-03-29T17:53:57.107Z,8.32
2023-03-29T17:56:23.775Z,8.30
2023-03-29T17:58:50.575Z,8.22
2023-03-29T18:01:19.624Z,7.76
2023-03-29T18:03:47.746Z,7.88
2023-03-29T18:06:16.322Z,7.95
2023-03-29T18:08:42.778Z,8.00
2023-03-29T18:11:11.986Z,7.84
2023-03-29T18:13:39.779Z,7.86
2023-03-29T18:16:07.542Z,7.72
2023-03-29T18:18:34.652Z,7.56
2023-03-29T18:21:01.531Z,7.06
2023-03-29T18:23:28.051Z,7.02
2023-03-29T18:26:02.909Z,6.91
2023-03-29T18:28:30.514Z,6.80
2023-03-29T18:30:57.217Z,6.86
2023-03-29T18:33:23.865Z,6.76
2023-03-29T18:35:51.341Z,6.80
2023-03-29T18:38:18.387Z,6.63
2023-03-29T18:40:46.958Z,6.64
2023-03-29T18:43:13.806Z,6.65
2023-03-29T18:45:40.385Z,6.52
2023-03-29T18:48:08.065Z,6.49
2023-03-29T18:50:34.970Z,6.35
2023-03-29T18:53:01.639Z,6.40
2023-03-29T18:55:28.564Z,6.44
2023-03-29T18:57:55.395Z,6.18
2023-03-29T19:00:22.171Z,6.11
2023-03-29T19:02:48.831Z,6.08
2023-03-29T19:05:15.564Z,6.06
2023-03-29T19:07:42.007Z,5.91
2023-03-29T19:10:08.645Z,5.92
2023-03-29T19:12:35.679Z,5.85
2023-03-29T19:15:02.277Z,5.99
2023-03-29T19:17:28.753Z,5.71
2023-03-29T19:19:56.733Z,5.67
2023-03-29T19:22:23.473Z,5.63
2023-03-29T19:24:50.014Z,5.55
2023-03-29T19:27:16.546Z,5.48
2023-03-29T19:29:43.046Z,5.38
2023-03-29T19:32:09.489Z,5.32
2023-03-29T19:34:36.192Z,5.12
2023-03-29T19:37:02.652Z,5.05
2023-03-29T19:39:29.722Z,5.13
2023-03-29T19:41:56.508Z,5.23
2023-03-29T19:44:25.759Z,5.12
2023-03-29T19:46:52.380Z,5.11
2023-03-29T19:51:45.494Z,5.06
2023-03-29T19:54:14.740Z,5.04
2023-03-29T19:56:42.896Z,5.02
2023-03-29T19:59:11.235Z,4.80
2023-03-29T20:01:39.441Z,4.63
2023-03-29T20:04:06.337Z,4.73
2023-03-29T20:06:32.992Z,4.74
2023-03-29T20:08:59.544Z,4.72
2023-03-29T20:11:26.193Z,4.46
2023-03-29T20:13:52.628Z,4.31
2023-03-29T20:16:19.311Z,4.16
2023-03-29T20:18:46.507Z,4.30
2023-03-29T20:21:16.291Z,4.24
2023-03-29T20:23:43.145Z,4.12
2023-03-29T20:26:10.505Z,4.06
2023-03-29T20:28:37.671Z,3.98
2023-03-29T20:31:05.663Z,4.11
2023-03-29T20:33:32.897Z,4.18
2023-03-29T20:35:59.461Z,4.19
2023-03-29T20:38:26.220Z,3.93
2023-03-29T20:40:53.496Z,3.89
2023-03-29T20:43:20.184Z,3.93
2023-03-29T20:45:53.872Z,4.02
2023-03-29T20:48:23.472Z,3.97
2023-03-29T20:50:50.387Z,3.83
2023-03-29T20:53:18.137Z,3.76
2023-03-29T20:55:44.821Z,3.79
2023-03-29T20:58:11.513Z,3.74
2023-03-29T21:00:38.274Z,3.76
2023-03-29T21:03:05.079Z,3.61
2023-03-29T21:05:32.959Z,3.82
2023-03-29T21:07:59.509Z,3.79
2023-03-29T21:10:26.484Z,3.82
2023-03-29T21:12:54.309Z,3.86
2023-03-29T21:15:21.005Z,3.85
2023-03-29T21:17:47.818Z,3.67
2023-03-29T21:20:14.901Z,3.38
2023-03-29T21:22:44.888Z,3.41
2023-03-29T21:25:12.409Z,3.48
2023-03-29T21:27:38.856Z,3.54
2023-03-29T21:30:05.950Z,3.57
2023-03-29T21:32:32.504Z,3.56
2023-03-29T21:34:58.995Z,3.52
2023-03-29T21:37:25.735Z,3.53
2023-03-29T21:39:52.162Z,3.54
2023-03-29T21:42:18.690Z,3.52
2023-03-29T21:44:45.271Z,3.42
2023-03-29T21:47:11.819Z,3.44
2023-03-29T21:49:38.419Z,3.47
2023-03-29T21:52:05.123Z,3.36
2023-03-29T21:54:31.637Z,3.37
2023-03-29T21:56:58.140Z,3.46
2023-03-29T21:59:24.785Z,3.36
2023-03-29T22:01:51.330Z,3.51
2023-03-29T22:04:29.236Z,3.67
2023-03-29T22:07:02.700Z,3.49
2023-03-29T22:09:29.195Z,3.47
2023-03-29T22:11:55.902Z,3.60
2023-03-29T22:14:22.389Z,3.69
2023-03-29T22:16:48.963Z,3.44
2023-03-29T22:19:15.472Z,3.24
2023-03-29T22:21:42.623Z,3.49
2023-03-29T22:24:09.125Z,3.58
2023-03-29T22:26:35.597Z,3.86
2023-03-29T22:29:02.345Z,3.71
2023-03-29T22:31:29.411Z,3.50
2023-03-29T22:33:56.259Z,3.53
2023-03-29T22:36:23.944Z,3.20
2023-03-29T22:38:51.183Z,3.43
2023-03-29T22:41:18.118Z,3.58
2023-03-29T22:43:45.185Z,3.53
2023-03-29T22:46:12.877Z,3.60
2023-03-29T22:48:39.633Z,3.62
2023-03-29T22:51:06.552Z,3.59
2023-03-29T22:53:33.413Z,3.52
2023-03-29T22:55:59.859Z,3.30
2023-03-29T22:58:26.848Z,3.34
2023-03-29T23:00:53.367Z,3.58
2023-03-29T23:03:19.905Z,3.60
2023-03-29T23:05:53.436Z,3.61
2023-03-29T23:08:20.004Z,3.54
2023-03-29T23:10:47.076Z,3.42
2023-03-29T23:13:19.943Z,3.49
2023-03-29T23:15:48.072Z,3.53
2023-03-29T23:18:15.494Z,3.76
2023-03-29T23:20:42.489Z,3.93
2023-03-29T23:23:09.294Z,3.76
2023-03-29T23:25:36.370Z,3.84
2023-03-29T23:28:03.006Z,3.84
2023-03-29T23:30:32.394Z,3.96
2023-03-29T23:33:00.021Z,4.20
2023-03-29T23:35:26.700Z,4.53
2023-03-29T23:37:54.143Z,4.63
2023-03-29T23:40:21.328Z,4.59
2023-03-29T23:42:48.917Z,4.41
2023-03-29T23:45:18.089Z,4.23
2023-03-29T23:47:45.510Z,4.26
2023-03-29T23:50:13.407Z,4.31
2023-03-29T23:52:40.649Z,4.32
2023-03-29T23:55:08.560Z,4.45
2023-03-29T23:57:36.970Z,4.60
